Time;durP1;ratioP1;P1;durP2;ratioP2;P2;SDS_P1;SDS_P2;PMS_P1;PMS_P2;Temp;Humidity;BMP_temperature;BMP_pressure;BME280_temperature;BME280_humidity;BME280_pressure;Samples;Min_cycle;Max_cycle;Signal;HPM_P1;HPM_P2
2023/12/26 00:01:57;;;;;;;1.25;0.57;;;9.90;99.90;;;;;;5010613;28;20463;-64
2023/12/26 00:04:23;;;;;;;1.05;0.80;;;9.90;99.90;;;;;;5011271;28;20042;-63
2023/12/26 00:06:50;;;;;;;2.78;0.90;;;10.00;99.90;;;;;;5011087;28;20060;-63
2023/12/26 00:09:16;;;;;;;2.55;1.13;;;10.00;99.90;;;;;;5010841;28;20466;-63
2023/12/26 00:11:46;;;;;;;2.20;1.00;;;9.90;99.90;;;;;;5009518;28;20054;-63
2023/12/26 00:14:15;;;;;;;1.65;1.08;;;10.00;99.90;;;;;;5011328;28;20391;-62
2023/12/26 00:16:42;;;;;;;3.85;1.52;;;10.00;99.90;;;;;;5011034;28;20041;-62
2023/12/26 00:19:08;;;;;;;4.05;1.50;;;10.10;99.90;;;;;;5010635;28;20433;-63
2023/12/26 00:21:37;;;;;;;1.98;1.20;;;10.10;99.90;;;;;;5010160;28;20045;-62
2023/12/26 00:24:04;;;;;;;2.65;1.30;;;10.00;99.90;;;;;;5009777;28;20042;-62
2023/12/26 00:26:37;;;;;;;2.60;1.17;;;10.00;99.90;;;;;;5009869;28;20065;-63
2023/12/26 00:29:04;;;;;;;2.70;1.50;;;10.10;99.90;;;;;;5010922;28;20046;-63
2023/12/26 00:31:30;;;;;;;2.75;1.30;;;10.20;99.90;;;;;;5009800;28;20466;-62
2023/12/26 00:33:57;;;;;;;4.53;1.55;;;10.10;99.90;;;;;;5010826;28;20053;-62
2023/12/26 00:36:24;;;;;;;3.45;1.48;;;10.30;99.90;;;;;;5010431;28;20054;-63
2023/12/26 00:38:50;;;;;;;3.25;1.35;;;10.10;99.90;;;;;;5010356;28;20064;-63
2023/12/26 00:41:17;;;;;;;3.47;1.10;;;10.20;99.90;;;;;;5009854;28;20054;-62
2023/12/26 00:43:43;;;;;;;2.58;1.20;;;10.10;99.90;;;;;;4993296;28;20065;-63
2023/12/26 00:46:09;;;;;;;2.85;1.23;;;10.30;99.90;;;;;;5009659;28;20058;-63
2023/12/26 00:48:36;;;;;;;1.80;1.00;;;10.40;99.90;;;;;;5010273;28;20046;-63
2023/12/26 00:51:03;;;;;;;4.55;1.60;;;10.30;99.90;;;;;;5009749;28;20057;-63
2023/12/26 00:53:29;;;;;;;6.78;1.45;;;10.50;99.90;;;;;;5010428;28;20061;-63
2023/12/26 00:55:55;;;;;;;9.13;1.80;;;10.40;99.90;;;;;;5010274;28;20046;-64
2023/12/26 00:58:22;;;;;;;4.65;1.10;;;10.40;99.90;;;;;;5010468;28;20046;-64
2023/12/26 01:00:48;;;;;;;4.68;1.20;;;10.50;99.90;;;;;;5009775;28;20112;-63
2023/12/26 01:03:15;;;;;;;4.68;1.40;;;10.30;99.90;;;;;;5010328;28;20046;-63
2023/12/26 01:05:41;;;;;;;5.95;1.38;;;10.30;99.90;;;;;;5010118;28;20046;-63
2023/12/26 01:08:09;;;;;;;5.13;1.40;;;10.30;99.90;;;;;;5009928;28;20046;-63
2023/12/26 01:10:35;;;;;;;2.33;0.90;;;10.10;99.90;;;;;;5008120;28;20068;-62
2023/12/26 01:13:02;;;;;;;3.50;0.80;;;10.10;99.90;;;;;;5009944;28;20115;-62
2023/12/26 01:15:28;;;;;;;3.20;1.20;;;9.90;99.90;;;;;;5009062;28;20058;-62
2023/12/26 01:17:58;;;;;;;6.55;1.15;;;9.90;99.90;;;;;;5008846;28;20061;-62
2023/12/26 01:20:25;;;;;;;2.95;1.02;;;9.80;99.90;;;;;;5009602;28;20066;-62
2023/12/26 01:22:51;;;;;;;3.22;1.25;;;9.70;99.90;;;;;;5009850;28;20067;-62
2023/12/26 01:25:18;;;;;;;3.20;1.00;;;9.70;99.90;;;;;;5008578;28;20057;-62
2023/12/26 01:27:44;;;;;;;3.35;1.00;;;9.70;99.90;;;;;;5009833;28;20064;-63
2023/12/26 01:30:13;;;;;;;2.92;0.82;;;9.70;99.90;;;;;;5007932;28;20042;-62
2023/12/26 01:32:39;;;;;;;5.57;1.00;;;9.60;99.90;;;;;;5009756;28;20053;-63
2023/12/26 01:35:07;;;;;;;7.22;1.08;;;9.70;99.90;;;;;;5009734;28;20442;-62
2023/12/26 01:37:33;;;;;;;7.47;1.17;;;9.60;99.90;;;;;;5008398;28;20378;-62
2023/12/26 01:39:59;;;;;;;5.35;1.30;;;9.60;99.90;;;;;;5008489;28;20377;-64
2023/12/26 01:42:25;;;;;;;4.00;1.10;;;9.60;99.90;;;;;;5009995;28;20042;-63
2023/12/26 01:44:52;;;;;;;3.05;0.82;;;9.60;99.90;;;;;;5009507;28;20381;-62
2023/12/26 01:47:18;;;;;;;2.25;0.90;;;9.70;99.90;;;;;;5009690;28;20038;-63
2023/12/26 01:49:45;;;;;;;3.33;0.95;;;9.80;99.90;;;;;;5012152;28;20371;-62
2023/12/26 01:52:14;;;;;;;5.93;1.10;;;9.70;99.90;;;;;;5012971;28;20470;-63
2023/12/26 01:54:40;;;;;;;3.25;1.00;;;9.70;99.90;;;;;;5012653;28;20054;-64
2023/12/26 01:57:07;;;;;;;4.72;1.20;;;9.70;99.90;;;;;;5013195;28;20065;-63
2023/12/26 01:59:38;;;;;;;5.65;1.30;;;9.70;99.90;;;;;;5012613;28;20377;-63
2023/12/26 02:02:05;;;;;;;5.60;1.35;;;9.70;99.90;;;;;;5011877;28;20056;-62
2023/12/26 02:04:32;;;;;;;3.92;1.20;;;9.70;99.90;;;;;;5013385;28;20046;-63
2023/12/26 02:07:00;;;;;;;4.13;1.45;;;9.70;99.90;;;;;;5013178;28;20066;-63
2023/12/26 02:09:27;;;;;;;5.00;1.55;;;9.80;99.90;;;;;;5013603;28;20142;-63
2023/12/26 02:11:54;;;;;;;7.90;1.70;;;9.80;99.90;;;;;;5011785;28;20076;-62
2023/12/26 02:14:21;;;;;;;8.45;2.40;;;9.80;99.90;;;;;;5013029;28;20049;-62
2023/12/26 02:16:54;;;;;;;7.88;2.20;;;9.90;99.90;;;;;;5012228;28;20436;-62
2023/12/26 02:19:20;;;;;;;10.48;2.17;;;9.90;99.90;;;;;;5013054;28;20418;-63
2023/12/26 02:21:48;;;;;;;6.70;1.40;;;9.90;99.90;;;;;;4995356;28;20469;-64
2023/12/26 02:24:14;;;;;;;4.78;1.48;;;9.90;99.90;;;;;;5013167;28;20225;-62
2023/12/26 02:26:42;;;;;;;8.38;1.67;;;10.00;99.90;;;;;;5013092;28;20042;-63
2023/12/26 02:29:10;;;;;;;8.52;1.70;;;10.00;99.90;;;;;;5013258;28;20048;-64
2023/12/26 02:31:38;;;;;;;7.18;1.50;;;10.00;99.90;;;;;;5012256;28;20417;-63
2023/12/26 02:34:05;;;;;;;8.68;1.92;;;9.90;99.90;;;;;;5013147;28;20050;-63
2023/12/26 02:36:31;;;;;;;6.00;1.42;;;10.00;99.90;;;;;;5012809;28;20049;-63
2023/12/26 02:38:59;;;;;;;7.53;1.70;;;9.90;99.90;;;;;;5012082;28;20123;-64
2023/12/26 02:41:25;;;;;;;5.43;2.03;;;10.00;99.90;;;;;;5011448;28;20504;-62
2023/12/26 02:43:51;;;;;;;8.88;1.70;;;10.00;99.90;;;;;;5012163;28;20140;-63
2023/12/26 02:46:18;;;;;;;5.93;1.70;;;10.00;99.90;;;;;;5028349;28;20050;-63
2023/12/26 02:48:44;;;;;;;4.78;1.40;;;10.00;99.90;;;;;;5011642;28;20302;-62
2023/12/26 02:51:12;;;;;;;7.57;1.63;;;9.90;99.90;;;;;;4994264;28;20390;-64
2023/12/26 02:53:38;;;;;;;5.05;1.23;;;9.90;99.90;;;;;;5012378;28;20056;-62
2023/12/26 02:56:04;;;;;;;8.63;1.60;;;9.90;99.90;;;;;;5012620;28;20054;-63
2023/12/26 02:58:31;;;;;;;6.57;1.55;;;9.80;99.90;;;;;;5012257;28;20463;-63
2023/12/26 03:00:57;;;;;;;5.13;1.50;;;9.90;99.90;;;;;;5011448;28;20474;-64
2023/12/26 03:03:24;;;;;;;8.65;1.65;;;9.80;99.90;;;;;;5011956;28;20353;-62
2023/12/26 03:05:53;;;;;;;7.82;1.75;;;9.80;99.90;;;;;;5011268;28;20468;-64
2023/12/26 03:08:23;;;;;;;7.03;1.67;;;9.90;99.90;;;;;;5011256;28;20133;-63
2023/12/26 03:10:53;;;;;;;5.43;1.60;;;9.90;99.90;;;;;;5010562;28;20153;-64
2023/12/26 03:13:19;;;;;;;10.00;2.03;;;9.80;99.90;;;;;;5012425;28;20142;-62
2023/12/26 03:15:45;;;;;;;4.97;1.60;;;9.90;99.90;;;;;;5012196;28;20061;-64
2023/12/26 03:18:12;;;;;;;6.68;1.40;;;9.90;99.90;;;;;;4994579;28;20061;-63
2023/12/26 03:20:38;;;;;;;6.45;1.60;;;9.90;99.90;;;;;;5011471;28;20061;-63
2023/12/26 03:23:05;;;;;;;8.43;2.00;;;9.90;99.90;;;;;;5012239;28;20042;-63
2023/12/26 03:25:31;;;;;;;9.73;2.25;;;9.90;99.90;;;;;;5011900;28;20061;-62
2023/12/26 03:27:57;;;;;;;5.35;2.08;;;10.00;99.90;;;;;;5011532;28;20382;-63
2023/12/26 03:30:24;;;;;;;4.40;1.70;;;9.50;99.90;;;;;;5011589;28;20046;-64
2023/12/26 03:32:50;;;;;;;5.32;1.73;;;9.10;99.90;;;;;;5010770;28;20053;-64
2023/12/26 03:35:16;;;;;;;6.32;1.38;;;8.40;99.90;;;;;;5011962;28;20490;-62
2023/12/26 03:37:42;;;;;;;3.88;1.40;;;8.00;99.90;;;;;;5010397;28;20541;-63
2023/12/26 03:40:09;;;;;;;6.93;1.30;;;7.80;99.90;;;;;;5010025;28;20502;-63
2023/12/26 03:42:36;;;;;;;5.55;1.25;;;7.70;99.90;;;;;;5011811;28;20357;-63
2023/12/26 03:45:02;;;;;;;6.75;1.40;;;7.60;99.90;;;;;;5011586;28;20065;-64
2023/12/26 03:47:31;;;;;;;5.22;1.67;;;7.50;99.90;;;;;;5009563;28;20428;-65
2023/12/26 03:49:57;;;;;;;4.80;1.30;;;7.60;99.90;;;;;;5009813;28;20042;-64
2023/12/26 03:52:24;;;;;;;8.55;1.23;;;7.60;99.90;;;;;;5008378;28;20046;-63
2023/12/26 03:54:52;;;;;;;3.42;1.40;;;7.70;99.90;;;;;;5010158;28;20046;-64
2023/12/26 03:57:19;;;;;;;7.32;1.50;;;7.90;99.90;;;;;;5010317;28;20068;-63
2023/12/26 03:59:46;;;;;;;6.55;1.63;;;8.00;99.90;;;;;;5010599;28;20459;-64
2023/12/26 04:02:12;;;;;;;5.25;1.63;;;8.20;99.90;;;;;;5011304;28;20088;-63
2023/12/26 04:04:38;;;;;;;5.78;1.42;;;8.20;99.90;;;;;;5011030;28;20068;-63
2023/12/26 04:07:05;;;;;;;7.05;1.50;;;8.20;99.90;;;;;;5011099;28;20057;-62
2023/12/26 04:09:31;;;;;;;8.25;1.90;;;8.40;99.90;;;;;;5009567;28;20455;-63
2023/12/26 04:12:01;;;;;;;8.77;1.90;;;8.30;99.90;;;;;;5005808;28;20046;-64
2023/12/26 04:14:27;;;;;;;8.15;1.70;;;8.40;99.90;;;;;;5010869;28;20045;-64
2023/12/26 04:16:53;;;;;;;5.35;1.73;;;8.40;99.90;;;;;;5007197;28;20548;-63
2023/12/26 04:19:20;;;;;;;9.13;1.98;;;8.40;99.90;;;;;;5010872;28;20049;-64
2023/12/26 04:21:46;;;;;;;7.28;2.40;;;8.40;99.90;;;;;;5006126;28;20380;-62
2023/12/26 04:24:13;;;;;;;5.97;2.38;;;8.30;99.90;;;;;;5007749;28;20041;-63
2023/12/26 04:26:39;;;;;;;8.32;1.33;;;8.20;99.90;;;;;;5009636;28;20282;-64
2023/12/26 04:29:05;;;;;;;8.00;1.50;;;8.20;99.90;;;;;;5009350;28;20343;-64
2023/12/26 04:31:32;;;;;;;7.30;1.83;;;8.10;99.90;;;;;;5009113;28;20480;-64
2023/12/26 04:33:58;;;;;;;6.40;1.58;;;8.10;99.90;;;;;;5009334;28;20474;-62
2023/12/26 04:36:24;;;;;;;10.10;1.67;;;8.20;99.90;;;;;;5009649;28;20064;-63
2023/12/26 04:38:51;;;;;;;8.43;1.50;;;8.30;99.90;;;;;;5009401;28;20065;-63
2023/12/26 04:41:17;;;;;;;5.80;1.40;;;8.20;99.90;;;;;;5009060;28;20053;-63
2023/12/26 04:43:47;;;;;;;8.75;1.77;;;8.20;99.90;;;;;;5009518;28;20050;-63
2023/12/26 04:46:19;;;;;;;6.63;1.70;;;8.20;99.90;;;;;;5009436;28;20057;-63
2023/12/26 04:48:46;;;;;;;6.07;1.60;;;8.30;99.90;;;;;;5010553;28;20061;-64
2023/12/26 04:51:17;;;;;;;5.35;1.70;;;8.30;99.90;;;;;;5009124;28;20049;-63
2023/12/26 04:53:47;;;;;;;5.20;1.48;;;8.40;99.90;;;;;;5025792;28;20046;-63
2023/12/26 04:56:18;;;;;;;6.88;1.98;;;8.30;99.90;;;;;;5025682;28;20054;-63
2023/12/26 04:58:49;;;;;;;5.00;1.60;;;8.30;99.90;;;;;;5009150;28;20045;-63
2023/12/26 05:01:17;;;;;;;8.57;1.83;;;8.30;99.90;;;;;;5008950;28;20058;-63
2023/12/26 05:03:45;;;;;;;5.78;1.50;;;8.30;99.90;;;;;;5009506;28;20046;-64
2023/12/26 05:06:11;;;;;;;10.00;1.92;;;8.30;99.90;;;;;;4993009;28;20045;-63
2023/12/26 05:08:41;;;;;;;5.60;1.98;;;8.30;99.90;;;;;;4992907;28;20426;-62
2023/12/26 05:11:08;;;;;;;11.35;3.05;;;8.30;99.90;;;;;;5009419;28;20497;-62
2023/12/26 05:13:34;;;;;;;7.60;1.50;;;8.30;99.90;;;;;;5010252;28;20077;-64
2023/12/26 05:16:03;;;;;;;10.18;2.40;;;8.30;99.90;;;;;;5010165;28;20069;-62
2023/12/26 05:18:32;;;;;;;16.98;4.25;;;8.30;99.90;;;;;;5010274;28;20053;-64
2023/12/26 05:20:59;;;;;;;11.30;2.40;;;8.30;99.90;;;;;;5009411;28;20063;-62
2023/12/26 05:23:25;;;;;;;7.75;2.47;;;8.30;99.90;;;;;;5009228;28;20046;-62
2023/12/26 05:25:51;;;;;;;5.95;1.77;;;8.30;99.90;;;;;;5009971;28;20414;-63
2023/12/26 05:28:18;;;;;;;6.15;1.77;;;8.30;99.90;;;;;;5009933;28;20045;-64
2023/12/26 05:30:44;;;;;;;6.47;1.50;;;8.40;99.90;;;;;;5008371;28;20045;-64
2023/12/26 05:33:11;;;;;;;6.30;1.50;;;8.40;99.90;;;;;;5008674;28;20042;-64
2023/12/26 05:35:38;;;;;;;7.18;2.13;;;8.50;99.90;;;;;;5008945;28;20053;-64
2023/12/26 05:38:04;;;;;;;11.57;3.20;;;8.50;99.90;;;;;;5009832;28;20046;-64
2023/12/26 05:40:30;;;;;;;10.25;2.13;;;8.60;99.90;;;;;;5009249;28;20091;-64
2023/12/26 05:42:57;;;;;;;7.63;1.90;;;8.60;99.90;;;;;;5009750;28;20350;-64
2023/12/26 05:45:23;;;;;;;8.27;2.53;;;8.70;99.90;;;;;;5009170;28;20057;-65
2023/12/26 05:47:49;;;;;;;7.88;1.52;;;8.80;99.90;;;;;;5009303;28;20045;-64
2023/12/26 05:50:16;;;;;;;9.43;1.73;;;8.70;99.90;;;;;;5009454;28;20049;-63
2023/12/26 05:52:42;;;;;;;11.57;2.50;;;8.80;99.90;;;;;;5009921;28;20042;-63
2023/12/26 05:55:10;;;;;;;6.05;1.60;;;8.70;99.90;;;;;;5008981;28;20053;-63
2023/12/26 05:57:37;;;;;;;10.73;2.35;;;8.70;99.90;;;;;;5009946;28;20351;-63
2023/12/26 06:00:05;;;;;;;15.25;3.95;;;8.90;99.90;;;;;;5009278;28;20081;-63
2023/12/26 06:02:31;;;;;;;10.40;2.60;;;8.80;99.90;;;;;;5008703;28;20061;-63
2023/12/26 06:04:57;;;;;;;9.63;1.88;;;8.90;99.90;;;;;;5008905;28;20077;-63
2023/12/26 06:07:24;;;;;;;6.72;2.40;;;8.90;99.90;;;;;;4992327;28;20506;-62
2023/12/26 06:09:54;;;;;;;15.70;3.22;;;8.90;99.90;;;;;;5004907;28;20157;-64
2023/12/26 06:12:21;;;;;;;10.88;2.42;;;8.90;99.90;;;;;;5008896;28;20046;-62
2023/12/26 06:14:47;;;;;;;5.57;2.33;;;9.00;99.90;;;;;;5008392;28;20050;-64
2023/12/26 06:17:13;;;;;;;9.63;3.38;;;9.00;99.90;;;;;;5008613;28;20053;-63
2023/12/26 06:19:40;;;;;;;7.82;1.77;;;9.00;99.90;;;;;;5009302;28;20057;-64
2023/12/26 06:22:06;;;;;;;10.32;2.90;;;9.00;99.90;;;;;;5008096;28;20054;-62
2023/12/26 06:24:33;;;;;;;9.63;2.58;;;9.00;99.90;;;;;;5008649;28;20068;-64
2023/12/26 06:26:59;;;;;;;8.85;2.72;;;8.90;99.90;;;;;;5009670;28;20065;-64
2023/12/26 06:29:25;;;;;;;12.60;3.67;;;8.90;99.90;;;;;;5009961;28;20069;-65
2023/12/26 06:31:52;;;;;;;11.93;2.67;;;8.80;99.90;;;;;;5009226;28;20057;-62
2023/12/26 06:34:18;;;;;;;14.18;3.50;;;8.80;99.90;;;;;;5010050;28;20108;-64
2023/12/26 06:36:44;;;;;;;10.55;3.10;;;8.70;99.90;;;;;;5013156;28;20064;-64
2023/12/26 06:39:12;;;;;;;10.35;2.85;;;8.70;99.90;;;;;;5013134;28;20050;-64
2023/12/26 06:41:40;;;;;;;15.95;3.05;;;8.70;99.90;;;;;;5012559;28;20045;-62
2023/12/26 06:44:06;;;;;;;14.95;3.38;;;8.70;99.90;;;;;;5012093;28;20054;-64
2023/12/26 06:46:34;;;;;;;18.88;4.25;;;8.70;99.90;;;;;;5012851;28;20632;-63
2023/12/26 06:49:00;;;;;;;10.43;2.65;;;8.70;99.90;;;;;;5012918;28;20053;-63
2023/12/26 06:51:26;;;;;;;9.18;1.92;;;8.70;99.90;;;;;;5012304;28;20073;-65
2023/12/26 06:53:53;;;;;;;7.95;2.42;;;8.70;99.90;;;;;;5012955;28;20058;-63
2023/12/26 06:56:20;;;;;;;11.38;2.85;;;8.70;99.90;;;;;;5011203;28;20046;-64
2023/12/26 06:58:46;;;;;;;12.55;5.05;;;8.70;99.90;;;;;;5012784;28;20054;-63
2023/12/26 07:01:13;;;;;;;14.48;3.03;;;8.70;99.90;;;;;;5012041;28;20053;-64
2023/12/26 07:03:39;;;;;;;13.07;2.70;;;8.70;99.90;;;;;;5012444;28;20378;-63
2023/12/26 07:06:07;;;;;;;16.85;3.78;;;8.70;99.90;;;;;;5012513;28;20057;-63
2023/12/26 07:08:34;;;;;;;9.50;2.83;;;8.80;99.90;;;;;;5011346;28;20057;-64
2023/12/26 07:11:01;;;;;;;12.02;3.10;;;8.80;99.90;;;;;;5011999;28;20046;-63
2023/12/26 07:13:28;;;;;;;16.30;2.78;;;8.70;99.90;;;;;;5011439;28;20049;-63
2023/12/26 07:15:54;;;;;;;13.00;3.47;;;8.80;99.90;;;;;;5012852;28;20057;-64
2023/12/26 07:18:20;;;;;;;13.50;2.75;;;8.80;99.90;;;;;;5012340;28;20054;-64
2023/12/26 07:20:47;;;;;;;8.00;2.20;;;8.80;99.90;;;;;;5011552;28;20381;-63
2023/12/26 07:23:13;;;;;;;9.43;2.38;;;8.80;99.90;;;;;;5012456;28;20053;-62
2023/12/26 07:25:41;;;;;;;9.70;2.15;;;8.80;99.90;;;;;;5012265;28;20053;-64
2023/12/26 07:28:07;;;;;;;11.27;2.72;;;8.80;99.90;;;;;;5011972;28;20461;-63
2023/12/26 07:30:34;;;;;;;13.32;2.78;;;8.80;99.90;;;;;;5011666;28;20057;-66
2023/12/26 07:33:00;;;;;;;11.82;3.50;;;8.80;99.90;;;;;;5010896;28;20485;-63
2023/12/26 07:35:29;;;;;;;11.43;3.03;;;8.80;99.90;;;;;;5012203;28;20065;-65
2023/12/26 07:37:55;;;;;;;10.60;2.30;;;8.80;99.90;;;;;;4995218;28;20058;-64
2023/12/26 07:40:22;;;;;;;11.18;3.67;;;8.80;99.90;;;;;;5011662;28;20129;-63
2023/12/26 07:42:49;;;;;;;15.15;4.47;;;8.80;99.90;;;;;;4994997;28;20053;-63
2023/12/26 07:45:18;;;;;;;12.85;2.67;;;8.80;99.90;;;;;;5010620;28;20525;-64
2023/12/26 07:47:44;;;;;;;18.50;4.07;;;8.70;99.90;;;;;;5010151;28;20073;-63
2023/12/26 07:50:11;;;;;;;11.88;3.15;;;8.70;99.90;;;;;;5011206;28;20060;-62
2023/12/26 07:52:37;;;;;;;9.93;3.20;;;8.70;99.90;;;;;;5011546;28;20059;-64
2023/12/26 07:55:04;;;;;;;9.65;2.72;;;8.50;99.90;;;;;;5011691;28;20061;-64
2023/12/26 07:57:31;;;;;;;13.40;3.03;;;8.60;99.90;;;;;;5010250;28;20072;-63
2023/12/26 07:59:58;;;;;;;12.55;2.50;;;8.60;99.90;;;;;;5011213;28;20046;-64
2023/12/26 08:02:24;;;;;;;13.40;2.33;;;8.60;99.90;;;;;;5010693;28;20075;-63
2023/12/26 08:04:51;;;;;;;9.98;2.33;;;8.60;99.90;;;;;;5011692;28;20050;-65
2023/12/26 08:07:17;;;;;;;11.13;2.67;;;8.60;99.90;;;;;;5011207;28;20093;-64
2023/12/26 08:09:44;;;;;;;7.75;2.08;;;8.60;99.90;;;;;;5010045;28;20056;-63
2023/12/26 08:12:10;;;;;;;9.30;2.28;;;8.60;99.90;;;;;;5011351;28;20054;-64
2023/12/26 08:14:37;;;;;;;10.55;2.70;;;8.60;99.90;;;;;;5011040;28;20440;-63
2023/12/26 08:17:03;;;;;;;10.82;2.47;;;8.60;99.90;;;;;;5011298;28;20053;-63
2023/12/26 08:19:31;;;;;;;10.32;2.00;;;8.50;99.90;;;;;;5010674;28;20484;-63
2023/12/26 08:21:59;;;;;;;9.68;2.25;;;8.50;99.90;;;;;;5009892;28;20093;-64
2023/12/26 08:24:25;;;;;;;13.70;2.97;;;8.50;99.90;;;;;;5010120;28;20120;-63
2023/12/26 08:26:57;;;;;;;11.82;2.78;;;8.40;99.90;;;;;;5010095;28;20103;-64
2023/12/26 08:29:24;;;;;;;15.88;3.10;;;8.40;99.90;;;;;;5010900;28;20045;-64
2023/12/26 08:31:50;;;;;;;13.98;4.03;;;8.30;99.90;;;;;;5010653;28;20042;-63
2023/12/26 08:34:16;;;;;;;26.33;3.75;;;8.40;99.90;;;;;;5009760;28;20541;-64
2023/12/26 08:36:43;;;;;;;19.70;4.30;;;8.40;99.90;;;;;;5009780;28;20414;-63
2023/12/26 08:39:09;;;;;;;17.08;3.13;;;8.40;99.90;;;;;;5009748;28;20068;-63
2023/12/26 08:41:37;;;;;;;23.38;4.45;;;8.40;99.90;;;;;;4992760;28;20076;-63
2023/12/26 08:44:04;;;;;;;14.20;2.83;;;8.40;99.90;;;;;;5010612;28;20073;-63
2023/12/26 08:46:30;;;;;;;16.65;3.83;;;8.30;99.90;;;;;;5010538;28;20056;-64
2023/12/26 08:48:58;;;;;;;16.45;3.17;;;8.30;99.90;;;;;;5009443;28;20060;-63
2023/12/26 08:51:24;;;;;;;12.68;3.45;;;8.40;99.90;;;;;;5009959;28;20053;-63
2023/12/26 08:53:50;;;;;;;13.18;3.50;;;8.50;99.90;;;;;;5009387;28;20052;-63
2023/12/26 08:56:18;;;;;;;14.60;3.60;;;8.50;99.90;;;;;;5009123;28;20053;-63
2023/12/26 08:58:46;;;;;;;20.48;3.35;;;8.60;99.90;;;;;;5010084;28;20376;-64
2023/12/26 09:01:12;;;;;;;16.33;3.53;;;8.60;99.90;;;;;;5008738;28;20418;-64
2023/12/26 09:03:38;;;;;;;23.55;3.42;;;8.60;99.90;;;;;;5007088;28;20038;-62
2023/12/26 09:06:10;;;;;;;17.40;3.53;;;8.70;99.90;;;;;;5009105;28;20042;-63
2023/12/26 09:08:41;;;;;;;12.30;2.78;;;8.70;99.90;;;;;;4992246;28;20060;-64
2023/12/26 09:11:09;;;;;;;12.07;2.65;;;8.70;99.90;;;;;;4993681;28;20049;-62
2023/12/26 09:13:35;;;;;;;6.88;2.10;;;8.80;99.90;;;;;;5009175;28;20481;-63
2023/12/26 09:16:01;;;;;;;12.32;3.10;;;8.70;99.90;;;;;;5008007;28;20357;-65
2023/12/26 09:18:28;;;;;;;10.50;2.13;;;8.80;99.90;;;;;;5024160;28;20060;-63
2023/12/26 09:20:55;;;;;;;11.68;2.63;;;8.90;99.90;;;;;;5006171;28;20553;-63
2023/12/26 09:23:22;;;;;;;9.43;2.67;;;9.00;99.90;;;;;;5009159;28;20476;-62
2023/12/26 09:25:48;;;;;;;9.95;2.17;;;8.90;99.90;;;;;;5008255;28;20049;-64
2023/12/26 09:28:16;;;;;;;10.18;2.25;;;8.90;99.90;;;;;;5009644;28;20046;-65
2023/12/26 09:30:43;;;;;;;14.32;2.78;;;8.90;99.90;;;;;;5006493;28;20362;-62
2023/12/26 09:33:09;;;;;;;11.57;2.63;;;8.90;99.90;;;;;;5007852;28;20042;-63
2023/12/26 09:35:36;;;;;;;12.75;3.30;;;9.00;99.90;;;;;;5008283;28;20058;-63
2023/12/26 09:38:02;;;;;;;14.82;3.60;;;9.00;99.90;;;;;;5009330;28;20042;-63
2023/12/26 09:40:29;;;;;;;17.40;3.13;;;9.00;99.90;;;;;;5009411;28;20046;-62
2023/12/26 09:43:01;;;;;;;12.38;2.70;;;9.00;99.90;;;;;;5006415;28;20050;-62
2023/12/26 09:45:27;;;;;;;15.10;2.47;;;9.00;99.90;;;;;;4988872;28;20042;-63
2023/12/26 09:47:54;;;;;;;8.57;2.30;;;9.10;99.90;;;;;;5008600;28;20104;-63
2023/12/26 09:50:22;;;;;;;16.00;3.35;;;9.00;99.90;;;;;;5004766;28;20053;-64
2023/12/26 09:52:56;;;;;;;16.58;4.50;;;9.00;99.90;;;;;;5009450;28;20045;-63
2023/12/26 09:55:23;;;;;;;13.20;3.67;;;9.00;99.90;;;;;;5009759;28;20046;-64
2023/12/26 09:57:49;;;;;;;9.45;3.38;;;9.00;99.90;;;;;;5009594;28;20046;-64
2023/12/26 10:00:17;;;;;;;7.03;3.10;;;9.10;99.90;;;;;;5007875;28;20130;-64
2023/12/26 10:02:43;;;;;;;9.13;2.55;;;9.10;99.90;;;;;;5008863;28;20062;-64
2023/12/26 10:05:11;;;;;;;12.70;2.33;;;9.20;99.90;;;;;;4992323;28;20057;-63
2023/12/26 10:07:37;;;;;;;14.10;3.40;;;9.20;99.90;;;;;;5009659;28;20050;-67
2023/12/26 10:10:05;;;;;;;14.27;3.13;;;9.20;99.90;;;;;;5010652;28;20061;-64
2023/12/26 10:12:34;;;;;;;16.80;4.93;;;9.20;99.90;;;;;;5011821;28;20049;-64
2023/12/26 10:15:04;;;;;;;18.33;4.50;;;9.20;99.90;;;;;;4995732;28;20454;-64
2023/12/26 10:17:32;;;;;;;21.88;4.03;;;9.10;99.90;;;;;;5012853;28;20053;-64
2023/12/26 10:19:59;;;;;;;13.70;3.88;;;9.10;99.90;;;;;;5012513;28;20466;-64
2023/12/26 10:22:28;;;;;;;5.60;2.50;;;9.10;99.90;;;;;;4995534;28;20058;-64
2023/12/26 10:25:00;;;;;;;13.70;2.55;;;9.20;99.90;;;;;;5013283;28;20597;-64
2023/12/26 10:27:27;;;;;;;17.33;2.97;;;9.30;99.90;;;;;;5013295;28;20046;-64
2023/12/26 10:29:57;;;;;;;15.27;3.38;;;9.40;99.90;;;;;;5012980;28;20076;-64
2023/12/26 10:32:26;;;;;;;22.77;5.53;;;9.40;99.90;;;;;;5011791;28;20045;-64
2023/12/26 10:34:53;;;;;;;18.20;2.85;;;9.40;99.90;;;;;;5012325;28;20054;-64
2023/12/26 10:37:24;;;;;;;19.00;3.13;;;9.40;99.90;;;;;;4995371;28;20058;-65
2023/12/26 10:39:51;;;;;;;16.90;3.08;;;9.50;99.90;;;;;;5011819;28;20517;-63
2023/12/26 10:42:18;;;;;;;16.65;3.85;;;9.50;99.90;;;;;;5011422;28;20049;-63
2023/12/26 10:44:45;;;;;;;20.27;3.50;;;9.50;99.90;;;;;;5012843;28;20160;-66
2023/12/26 10:47:14;;;;;;;16.17;3.75;;;9.50;99.90;;;;;;5011678;28;20350;-64
2023/12/26 10:49:41;;;;;;;12.13;2.38;;;9.50;99.90;;;;;;5011114;28;20379;-63
2023/12/26 10:52:13;;;;;;;11.02;3.13;;;9.50;99.90;;;;;;5011120;28;20145;-63
2023/12/26 10:54:41;;;;;;;12.55;2.58;;;9.40;99.90;;;;;;5011395;28;20145;-64
2023/12/26 10:57:08;;;;;;;10.98;2.92;;;9.40;99.90;;;;;;5012110;28;20137;-62
2023/12/26 10:59:35;;;;;;;6.05;2.30;;;9.40;99.90;;;;;;5011074;28;20056;-65
2023/12/26 11:02:03;;;;;;;9.73;2.63;;;9.40;99.90;;;;;;5008406;28;20085;-64
2023/12/26 11:04:29;;;;;;;14.88;2.95;;;9.40;99.90;;;;;;5011133;28;20061;-63
2023/12/26 11:06:57;;;;;;;8.77;2.60;;;9.40;99.90;;;;;;5010999;28;20070;-66
2023/12/26 11:09:23;;;;;;;19.58;3.90;;;9.40;99.90;;;;;;5011588;28;20057;-62
2023/12/26 11:11:51;;;;;;;15.35;3.33;;;9.50;99.90;;;;;;4990768;28;20038;-63
2023/12/26 11:14:17;;;;;;;11.88;2.97;;;9.50;99.90;;;;;;5011951;28;20057;-63
2023/12/26 11:16:44;;;;;;;9.05;2.58;;;9.50;99.90;;;;;;5011316;28;20477;-64
2023/12/26 11:19:10;;;;;;;12.07;2.72;;;9.50;99.90;;;;;;5011669;28;20050;-64
2023/12/26 11:21:38;;;;;;;11.57;2.80;;;9.50;99.90;;;;;;5010769;28;20069;-64
2023/12/26 11:24:05;;;;;;;15.00;3.53;;;9.50;99.90;;;;;;5010678;28;20046;-62
2023/12/26 11:26:33;;;;;;;12.50;3.50;;;9.50;99.90;;;;;;5011028;28;20049;-64
2023/12/26 11:29:03;;;;;;;10.35;2.50;;;9.50;99.90;;;;;;5009291;28;20045;-63
2023/12/26 11:31:31;;;;;;;12.65;2.45;;;9.50;99.90;;;;;;4994286;28;20050;-63
2023/12/26 11:33:58;;;;;;;10.32;2.20;;;9.50;99.90;;;;;;5011582;28;20492;-63
2023/12/26 11:36:24;;;;;;;13.90;2.50;;;9.60;99.90;;;;;;5011711;28;20058;-63
2023/12/26 11:38:50;;;;;;;11.50;2.30;;;9.50;99.90;;;;;;5010951;28;20504;-64
2023/12/26 11:41:16;;;;;;;11.98;2.55;;;9.50;99.90;;;;;;5010153;28;20496;-63
2023/12/26 11:43:43;;;;;;;15.65;3.13;;;9.60;99.90;;;;;;5010723;28;20393;-63
2023/12/26 11:46:09;;;;;;;10.98;2.50;;;9.50;99.90;;;;;;5008712;28;20441;-64
2023/12/26 11:48:36;;;;;;;11.52;2.85;;;9.50;99.90;;;;;;5009692;28;20049;-64
2023/12/26 11:51:03;;;;;;;11.70;2.55;;;9.50;99.90;;;;;;5009450;28;20366;-63
2023/12/26 11:53:29;;;;;;;10.43;2.53;;;9.60;99.90;;;;;;5010387;28;20628;-64
2023/12/26 11:55:56;;;;;;;9.35;2.30;;;9.50;99.90;;;;;;5010384;28;20054;-64
2023/12/26 11:58:23;;;;;;;12.73;2.40;;;9.50;99.90;;;;;;5010223;28;20081;-63
2023/12/26 12:00:49;;;;;;;9.95;1.95;;;9.50;99.90;;;;;;4992770;28;20061;-65
2023/12/26 12:03:15;;;;;;;9.05;2.05;;;9.50;99.90;;;;;;5009728;28;20046;-63
2023/12/26 12:05:42;;;;;;;9.70;2.33;;;9.50;99.90;;;;;;5010509;28;20046;-62
2023/12/26 12:08:11;;;;;;;9.38;2.53;;;9.50;99.90;;;;;;4993465;28;20049;-66
2023/12/26 12:10:57;;;;;;;9.43;1.92;;;9.50;99.90;;;;;;4993377;28;20089;-62
2023/12/26 12:13:24;;;;;;;11.02;2.25;;;9.50;99.90;;;;;;5007534;28;20042;-64
2023/12/26 12:15:50;;;;;;;11.18;2.17;;;9.50;99.90;;;;;;5008971;28;20537;-63
2023/12/26 12:18:20;;;;;;;11.88;2.42;;;9.70;99.90;;;;;;5009657;28;20478;-64
2023/12/26 12:20:49;;;;;;;10.38;2.38;;;9.80;99.90;;;;;;5008983;28;20073;-63
2023/12/26 12:23:15;;;;;;;9.48;2.08;;;9.90;99.90;;;;;;5009563;28;20477;-63
2023/12/26 12:25:41;;;;;;;8.48;2.03;;;9.90;99.90;;;;;;5009689;28;20045;-64
2023/12/26 12:28:09;;;;;;;7.72;2.30;;;10.00;99.90;;;;;;5009790;28;20050;-63
2023/12/26 12:30:36;;;;;;;12.35;2.53;;;10.10;99.90;;;;;;5008420;28;20406;-65
2023/12/26 12:33:20;;;;;;;6.50;2.05;;;10.10;99.90;;;;;;5008938;28;20049;-64
2023/12/26 12:35:47;;;;;;;9.88;2.55;;;10.20;99.90;;;;;;4993698;28;20049;-64
2023/12/26 12:38:16;;;;;;;8.25;2.33;;;10.10;99.90;;;;;;5008698;28;20145;-62
2023/12/26 12:40:45;;;;;;;11.00;2.30;;;10.10;99.90;;;;;;4991906;28;20049;-64
2023/12/26 12:43:11;;;;;;;11.48;2.85;;;10.10;99.90;;;;;;5008607;28;20137;-64
2023/12/26 12:45:38;;;;;;;9.60;2.55;;;10.00;99.90;;;;;;4991651;28;20052;-64
2023/12/26 12:48:04;;;;;;;10.05;2.25;;;10.10;99.90;;;;;;4991537;28;20056;-64
2023/12/26 12:50:30;;;;;;;13.15;2.40;;;10.10;99.90;;;;;;5008308;28;20053;-64